createdAt,value
2017-08-31T00:00:03.289Z,20.60
2017-08-31T00:02:30.707Z,20.60
2017-08-31T00:04:58.125Z,20.60
2017-08-31T00:07:26.688Z,20.60
2017-08-31T00:09:54.108Z,20.60
2017-08-31T00:12:21.518Z,20.50
2017-08-31T00:14:48.930Z,20.50
2017-08-31T00:17:16.345Z,20.50
2017-08-31T00:19:43.819Z,20.50
2017-08-31T00:22:11.207Z,20.40
2017-08-31T00:24:38.625Z,20.30
2017-08-31T00:27:06.045Z,20.20
2017-08-31T00:29:34.298Z,20.30
2017-08-31T00:32:01.722Z,20.30
2017-08-31T00:34:29.123Z,20.30
2017-08-31T00:36:56.538Z,20.40
2017-08-31T00:39:23.955Z,20.40
2017-08-31T00:41:57.922Z,20.20
2017-08-31T00:44:25.362Z,20.10
2017-08-31T00:46:52.750Z,19.80
2017-08-31T00:49:20.162Z,19.60
2017-08-31T00:51:47.578Z,19.40
2017-08-31T00:54:14.991Z,19.30
2017-08-31T00:56:42.394Z,19.30
2017-08-31T00:59:09.818Z,19.10
2017-08-31T01:01:37.221Z,19.10
2017-08-31T01:04:04.642Z,19.00
2017-08-31T01:06:32.062Z,18.90
2017-08-31T01:08:59.480Z,19.00
2017-08-31T01:11:26.893Z,18.90
2017-08-31T01:13:54.302Z,18.90
2017-08-31T01:16:21.714Z,18.90
2017-08-31T01:18:49.117Z,18.90
2017-08-31T01:21:16.537Z,18.90
2017-08-31T01:23:43.960Z,18.90
2017-08-31T01:26:11.370Z,18.90
2017-08-31T01:28:38.792Z,19.00
2017-08-31T01:31:06.205Z,18.90
2017-08-31T01:33:33.606Z,19.00
2017-08-31T01:36:01.026Z,19.00
2017-08-31T01:38:28.445Z,19.00
2017-08-31T01:40:55.857Z,19.10
2017-08-31T01:43:23.273Z,19.10
2017-08-31T01:45:50.694Z,19.20
2017-08-31T01:48:18.622Z,19.40
2017-08-31T01:50:46.057Z,19.50
2017-08-31T01:53:14.248Z,19.50
2017-08-31T01:55:41.649Z,19.30
2017-08-31T01:58:09.834Z,19.40
2017-08-31T02:00:37.254Z,19.40
2017-08-31T02:03:04.662Z,19.40
2017-08-31T02:05:32.128Z,19.10
2017-08-31T02:07:59.517Z,19.20
2017-08-31T02:10:26.934Z,19.30
2017-08-31T02:12:54.345Z,19.40
2017-08-31T02:15:21.798Z,19.30
2017-08-31T02:17:49.271Z,19.20
2017-08-31T02:20:16.670Z,19.10
2017-08-31T02:22:44.090Z,18.90
2017-08-31T02:25:11.502Z,18.90
2017-08-31T02:27:40.039Z,19.10
2017-08-31T02:30:07.455Z,19.30
2017-08-31T02:32:34.870Z,19.30
2017-08-31T02:35:02.290Z,19.20
2017-08-31T02:37:29.718Z,19.10
2017-08-31T02:39:57.131Z,19.30
2017-08-31T02:42:24.542Z,19.40
2017-08-31T02:44:51.949Z,19.30
2017-08-31T02:47:19.369Z,19.50
2017-08-31T02:49:46.781Z,19.50
2017-08-31T02:52:14.229Z,19.40
2017-08-31T02:54:41.614Z,19.40
2017-08-31T02:57:09.025Z,19.50
2017-08-31T02:59:36.442Z,19.60
2017-08-31T03:02:03.877Z,19.70
2017-08-31T03:04:31.285Z,19.80
2017-08-31T03:06:58.698Z,19.80
2017-08-31T03:09:26.849Z,19.90
2017-08-31T03:11:54.257Z,19.80
2017-08-31T03:14:22.563Z,19.70
2017-08-31T03:16:49.984Z,19.70
2017-08-31T03:19:17.392Z,19.70
2017-08-31T03:21:44.803Z,19.70
2017-08-31T03:24:12.229Z,19.60
2017-08-31T03:26:39.633Z,19.50
2017-08-31T03:29:07.474Z,19.50
2017-08-31T03:31:34.885Z,19.60
2017-08-31T03:34:02.313Z,19.50
2017-08-31T03:36:29.728Z,19.40
2017-08-31T03:38:57.146Z,19.50
2017-08-31T03:41:25.344Z,19.60
2017-08-31T03:43:52.757Z,19.70
2017-08-31T03:46:21.072Z,19.60
2017-08-31T03:48:48.494Z,19.50
2017-08-31T03:51:15.910Z,19.40
2017-08-31T03:53:43.741Z,19.40
2017-08-31T03:56:11.157Z,19.50
2017-08-31T03:58:39.410Z,19.50
2017-08-31T04:01:07.905Z,19.50
2017-08-31T04:03:35.324Z,19.40
2017-08-31T04:06:02.734Z,19.40
2017-08-31T04:08:31.387Z,19.30
2017-08-31T04:10:58.795Z,19.30
2017-08-31T04:13:26.227Z,19.30
2017-08-31T04:15:53.637Z,19.20
2017-08-31T04:18:21.042Z,19.20
2017-08-31T04:20:48.454Z,19.10
2017-08-31T04:23:15.866Z,18.90
2017-08-31T04:25:43.284Z,18.90
2017-08-31T04:28:10.691Z,18.70
2017-08-31T04:30:38.105Z,18.50
2017-08-31T04:33:05.518Z,18.50
2017-08-31T04:35:32.938Z,18.60
2017-08-31T04:38:00.355Z,18.70
2017-08-31T04:40:27.773Z,18.70
2017-08-31T04:42:56.069Z,18.70
2017-08-31T04:45:23.490Z,18.90
2017-08-31T04:47:50.951Z,18.90
2017-08-31T04:50:19.493Z,19.00
2017-08-31T04:52:46.915Z,19.10
2017-08-31T04:55:14.368Z,19.10
2017-08-31T04:57:42.659Z,19.10
2017-08-31T05:00:15.371Z,19.10
2017-08-31T05:02:43.609Z,19.10
2017-08-31T05:05:11.030Z,19.10
2017-08-31T05:07:38.450Z,19.20
2017-08-31T05:10:06.067Z,19.20
2017-08-31T05:12:33.485Z,19.10
2017-08-31T05:15:00.899Z,19.10
2017-08-31T05:17:35.025Z,19.10
2017-08-31T05:20:02.441Z,19.10
2017-08-31T05:22:29.849Z,19.20
2017-08-31T05:24:57.275Z,19.20
2017-08-31T05:27:24.690Z,19.20
2017-08-31T05:29:52.514Z,19.20
2017-08-31T05:32:19.937Z,19.10
2017-08-31T05:34:47.351Z,19.10
2017-08-31T05:37:14.765Z,19.00
2017-08-31T05:39:42.987Z,19.00
2017-08-31T05:42:10.394Z,19.00
2017-08-31T05:44:37.809Z,19.00
2017-08-31T05:47:05.223Z,19.10
2017-08-31T05:49:32.647Z,19.00
2017-08-31T05:52:00.050Z,19.00
2017-08-31T05:54:27.474Z,18.90
2017-08-31T05:56:55.135Z,19.00
2017-08-31T05:59:22.547Z,19.00
2017-08-31T06:01:53.667Z,18.90
2017-08-31T06:04:21.090Z,19.00
2017-08-31T06:06:48.525Z,19.00
2017-08-31T06:09:15.967Z,18.90
2017-08-31T06:11:43.388Z,19.00
2017-08-31T06:14:10.804Z,19.00
2017-08-31T06:16:38.226Z,19.10
2017-08-31T06:19:05.638Z,19.10
2017-08-31T06:21:33.991Z,19.10
2017-08-31T06:24:01.405Z,19.10
2017-08-31T06:26:28.822Z,19.20
2017-08-31T06:28:56.238Z,19.30
2017-08-31T06:31:23.651Z,19.10
2017-08-31T06:33:51.072Z,19.10
2017-08-31T06:36:18.490Z,19.10
2017-08-31T06:38:46.795Z,18.80
2017-08-31T06:41:14.225Z,18.70
2017-08-31T06:43:41.638Z,18.60
2017-08-31T06:46:09.050Z,18.60
2017-08-31T06:48:37.743Z,18.50
2017-08-31T06:51:05.162Z,18.50
2017-08-31T06:53:32.589Z,18.60
2017-08-31T06:55:59.997Z,18.60
2017-08-31T06:58:28.851Z,18.60
2017-08-31T07:00:59.581Z,18.70
2017-08-31T07:03:27.021Z,18.90
2017-08-31T07:05:54.422Z,18.80
2017-08-31T07:08:21.838Z,18.80
2017-08-31T07:10:49.250Z,18.80
2017-08-31T07:13:17.462Z,18.90
2017-08-31T07:15:45.681Z,19.00
2017-08-31T07:18:13.097Z,19.00
2017-08-31T07:20:40.513Z,19.10
2017-08-31T07:23:07.932Z,19.20
2017-08-31T07:25:35.349Z,19.30
2017-08-31T07:28:02.771Z,19.20
2017-08-31T07:30:30.178Z,18.90
2017-08-31T07:32:57.605Z,18.40
2017-08-31T07:35:25.015Z,17.50
2017-08-31T07:37:52.448Z,17.10
2017-08-31T07:40:19.859Z,16.80
2017-08-31T07:42:47.286Z,16.50
2017-08-31T07:45:14.705Z,16.40
2017-08-31T07:47:42.134Z,16.30
2017-08-31T07:50:09.549Z,16.10
2017-08-31T07:52:36.978Z,15.80
2017-08-31T07:55:04.394Z,15.70
2017-08-31T07:57:31.799Z,15.50
2017-08-31T07:59:59.222Z,15.50
2017-08-31T08:02:26.650Z,15.50
2017-08-31T08:04:54.066Z,15.40
2017-08-31T08:07:21.486Z,15.40
2017-08-31T08:09:48.904Z,15.40
2017-08-31T08:12:16.327Z,15.40
2017-08-31T08:14:43.749Z,15.40
2017-08-31T08:17:11.162Z,15.40
2017-08-31T08:19:38.596Z,15.30
2017-08-31T08:22:06.006Z,15.30
2017-08-31T08:24:33.430Z,15.30
2017-08-31T08:27:00.835Z,15.10
2017-08-31T08:29:28.267Z,15.10
2017-08-31T08:31:55.684Z,15.20
2017-08-31T08:34:23.101Z,15.30
2017-08-31T08:36:50.512Z,15.40
2017-08-31T08:39:17.925Z,15.40
2017-08-31T08:41:45.343Z,15.40
2017-08-31T08:44:12.766Z,15.40
2017-08-31T08:46:40.189Z,15.40
2017-08-31T08:49:07.609Z,15.40
2017-08-31T08:51:35.022Z,15.50
2017-08-31T08:54:02.442Z,15.40
2017-08-31T08:56:29.855Z,15.60
2017-08-31T08:58:57.291Z,15.70
2017-08-31T09:01:42.534Z,15.70
2017-08-31T09:04:09.954Z,15.80
2017-08-31T09:06:37.366Z,15.70
2017-08-31T09:09:04.794Z,15.60
2017-08-31T09:11:32.214Z,15.60
2017-08-31T09:13:59.634Z,15.70
2017-08-31T09:16:27.061Z,15.80
2017-08-31T09:18:54.473Z,15.90
2017-08-31T09:21:21.889Z,16.10
2017-08-31T09:23:50.316Z,16.10
2017-08-31T09:26:17.750Z,16.20
2017-08-31T09:28:45.162Z,16.30
2017-08-31T09:31:12.584Z,16.30
2017-08-31T09:33:41.819Z,16.40
2017-08-31T09:36:09.238Z,16.50
2017-08-31T09:38:36.660Z,16.70
2017-08-31T09:41:04.075Z,17.00
2017-08-31T09:43:31.496Z,17.10
2017-08-31T09:45:58.906Z,17.10
2017-08-31T09:48:26.323Z,17.00
2017-08-31T09:50:53.742Z,17.00
2017-08-31T09:53:21.160Z,16.80
2017-08-31T09:55:48.579Z,16.50
2017-08-31T09:58:15.994Z,16.60
2017-08-31T10:00:43.429Z,16.70
2017-08-31T10:03:10.859Z,16.90
2017-08-31T10:05:38.289Z,17.20
2017-08-31T10:08:05.707Z,17.30
2017-08-31T10:10:33.117Z,17.40
2017-08-31T10:13:00.543Z,17.80
2017-08-31T10:15:27.957Z,18.00
2017-08-31T10:17:55.390Z,18.40
2017-08-31T10:20:22.802Z,18.60
2017-08-31T10:22:50.215Z,19.10
2017-08-31T10:25:17.639Z,19.10
2017-08-31T10:27:45.052Z,19.00
2017-08-31T10:30:12.457Z,19.20
2017-08-31T10:32:39.880Z,19.20
2017-08-31T10:35:07.286Z,19.10
2017-08-31T10:37:34.718Z,18.90
2017-08-31T10:40:02.728Z,18.60
2017-08-31T10:42:30.139Z,18.50
2017-08-31T10:44:57.561Z,18.70
2017-08-31T10:47:24.979Z,18.60
2017-08-31T10:49:52.394Z,18.40
2017-08-31T10:52:20.454Z,18.50
2017-08-31T10:54:47.877Z,19.20
2017-08-31T10:57:17.273Z,19.90
2017-08-31T10:59:44.707Z,20.20
2017-08-31T11:02:12.107Z,20.00
2017-08-31T11:04:39.523Z,19.70
2017-08-31T11:07:06.940Z,19.80
2017-08-31T11:09:34.597Z,19.70
2017-08-31T11:12:01.983Z,19.80
2017-08-31T11:14:29.397Z,19.70
2017-08-31T11:16:56.813Z,19.60
2017-08-31T11:19:24.233Z,19.90
2017-08-31T11:21:52.539Z,20.20
2017-08-31T11:24:19.957Z,20.00
2017-08-31T11:26:47.388Z,19.90
2017-08-31T11:29:14.986Z,19.60
2017-08-31T11:31:42.298Z,19.70
2017-08-31T11:34:09.746Z,20.10
2017-08-31T11:36:37.214Z,20.50
2017-08-31T11:39:04.481Z,20.90
2017-08-31T11:41:31.905Z,21.50
2017-08-31T11:44:00.486Z,21.70
2017-08-31T11:46:27.902Z,21.50
2017-08-31T11:48:55.318Z,21.20
2017-08-31T11:51:23.418Z,20.90
2017-08-31T11:53:50.831Z,21.00
2017-08-31T11:56:18.241Z,21.10
2017-08-31T11:58:45.667Z,21.70
2017-08-31T12:01:13.094Z,21.80
2017-08-31T12:03:40.512Z,21.40
2017-08-31T12:06:07.928Z,21.40
2017-08-31T12:08:35.335Z,21.90
2017-08-31T12:11:02.774Z,22.20
2017-08-31T12:13:30.192Z,22.80
2017-08-31T12:15:57.622Z,23.60
2017-08-31T12:18:25.038Z,24.20
2017-08-31T12:20:52.458Z,23.60
2017-08-31T12:23:19.884Z,23.50
2017-08-31T12:25:47.302Z,23.40
2017-08-31T12:28:14.763Z,23.50
2017-08-31T12:30:42.681Z,22.90
2017-08-31T12:33:10.109Z,22.50
2017-08-31T12:35:38.343Z,22.00
2017-08-31T12:38:05.757Z,21.30
2017-08-31T12:40:33.171Z,20.60
2017-08-31T12:43:00.591Z,20.40
2017-08-31T12:45:28.009Z,20.30
2017-08-31T12:47:55.422Z,20.00
2017-08-31T12:50:22.832Z,19.90
2017-08-31T12:52:50.245Z,19.90
2017-08-31T12:55:17.664Z,19.80
2017-08-31T12:57:45.084Z,19.80
2017-08-31T13:00:32.920Z,19.70
2017-08-31T13:03:00.334Z,19.90
2017-08-31T13:05:27.747Z,20.30
2017-08-31T13:07:55.169Z,20.20
2017-08-31T13:10:22.582Z,20.40
2017-08-31T13:12:50.002Z,20.30
2017-08-31T13:15:17.410Z,20.00
2017-08-31T13:17:44.821Z,20.00
2017-08-31T13:20:12.239Z,19.80
2017-08-31T13:22:41.537Z,19.70
2017-08-31T13:25:08.952Z,19.60
2017-08-31T13:27:36.378Z,19.60
2017-08-31T13:30:03.798Z,19.70
2017-08-31T13:32:31.221Z,19.80
2017-08-31T13:34:58.637Z,20.00
2017-08-31T13:37:36.552Z,20.10
2017-08-31T13:40:03.967Z,20.10
2017-08-31T13:42:31.382Z,20.20
2017-08-31T13:44:58.799Z,20.30
2017-08-31T13:47:27.147Z,20.30
2017-08-31T13:49:54.566Z,20.20
2017-08-31T13:52:21.979Z,20.10
2017-08-31T13:54:49.400Z,20.00
2017-08-31T13:57:16.823Z,20.00
2017-08-31T13:59:44.238Z,19.70
2017-08-31T14:02:12.434Z,19.50
2017-08-31T14:04:39.846Z,19.40
2017-08-31T14:07:07.268Z,19.10
2017-08-31T14:09:34.703Z,18.80
2017-08-31T14:12:02.113Z,18.70
2017-08-31T14:14:29.540Z,18.50
2017-08-31T14:16:57.002Z,18.50
2017-08-31T14:19:24.420Z,18.70
2017-08-31T14:21:51.821Z,18.60
2017-08-31T14:24:19.261Z,18.50
2017-08-31T14:26:46.662Z,18.50
2017-08-31T14:29:14.086Z,18.80
2017-08-31T14:31:41.498Z,19.00
2017-08-31T14:34:08.926Z,19.10
2017-08-31T14:36:36.339Z,18.80
2017-08-31T14:39:03.786Z,18.60
2017-08-31T14:41:31.191Z,18.60
2017-08-31T14:43:58.982Z,18.60
2017-08-31T14:46:26.405Z,18.40
2017-08-31T14:48:53.874Z,18.30
2017-08-31T14:51:22.435Z,18.30
2017-08-31T14:53:49.876Z,18.00
2017-08-31T14:56:17.302Z,17.90
2017-08-31T14:58:44.698Z,17.90
2017-08-31T15:01:33.666Z,17.90
2017-08-31T15:04:01.098Z,17.70
2017-08-31T15:06:28.520Z,17.70
2017-08-31T15:08:55.934Z,18.00
2017-08-31T15:11:23.366Z,18.10
2017-08-31T15:13:51.667Z,18.10
2017-08-31T15:16:19.085Z,18.20
2017-08-31T15:18:48.446Z,18.10
2017-08-31T15:21:15.866Z,17.70
2017-08-31T15:23:43.277Z,17.70
2017-08-31T15:26:10.694Z,18.00
2017-08-31T15:28:38.106Z,18.20
2017-08-31T15:31:05.535Z,18.30
2017-08-31T15:33:32.950Z,18.10
2017-08-31T15:36:08.086Z,17.90
2017-08-31T15:38:35.498Z,17.80
2017-08-31T15:41:02.914Z,17.60
2017-08-31T15:43:30.330Z,17.40
2017-08-31T15:45:57.750Z,17.40
2017-08-31T15:48:25.163Z,17.60
2017-08-31T15:50:52.579Z,17.50
2017-08-31T15:53:20.011Z,17.60
2017-08-31T15:55:47.411Z,17.60
2017-08-31T15:58:14.830Z,17.50
2017-08-31T16:00:43.182Z,17.40
2017-08-31T16:03:10.607Z,17.30
2017-08-31T16:05:38.015Z,17.30
2017-08-31T16:08:05.437Z,17.50
2017-08-31T16:10:32.850Z,17.40
2017-08-31T16:13:00.271Z,17.50
2017-08-31T16:15:27.688Z,17.80
2017-08-31T16:17:55.688Z,17.90
2017-08-31T16:20:23.091Z,17.70
2017-08-31T16:22:50.509Z,17.50
2017-08-31T16:25:17.933Z,17.50
2017-08-31T16:27:45.357Z,17.40
2017-08-31T16:30:12.757Z,17.50
2017-08-31T16:32:40.186Z,17.40
2017-08-31T16:35:07.598Z,17.50
2017-08-31T16:37:35.021Z,17.60
2017-08-31T16:40:02.436Z,17.70
2017-08-31T16:42:29.857Z,17.70
2017-08-31T16:44:57.974Z,17.70
2017-08-31T16:47:35.758Z,17.80
2017-08-31T16:50:03.170Z,17.80
2017-08-31T16:52:30.590Z,17.40
2017-08-31T16:54:58.003Z,17.30
2017-08-31T16:57:25.426Z,17.30
2017-08-31T16:59:52.846Z,17.30
2017-08-31T17:02:20.258Z,17.30
2017-08-31T17:04:47.688Z,17.30
2017-08-31T17:07:15.091Z,17.20
2017-08-31T17:09:43.235Z,17.30
2017-08-31T17:12:10.647Z,17.10
2017-08-31T17:14:38.070Z,17.00
2017-08-31T17:17:05.481Z,17.00
2017-08-31T17:19:32.898Z,17.00
2017-08-31T17:22:00.307Z,17.00
2017-08-31T17:24:27.761Z,16.90
2017-08-31T17:26:55.167Z,17.00
2017-08-31T17:29:22.588Z,16.90
2017-08-31T17:31:50.006Z,16.90
2017-08-31T17:34:17.419Z,16.90
2017-08-31T17:36:44.830Z,16.90
2017-08-31T17:39:12.246Z,16.70
2017-08-31T17:41:39.669Z,16.70
2017-08-31T17:44:07.081Z,16.60
2017-08-31T17:46:34.482Z,16.60
2017-08-31T17:49:01.910Z,16.60
2017-08-31T17:51:29.331Z,16.70
2017-08-31T17:53:56.745Z,16.70
2017-08-31T17:56:24.157Z,16.60
2017-08-31T17:58:51.574Z,16.60
2017-08-31T18:01:18.996Z,16.50
2017-08-31T18:03:46.430Z,16.30
2017-08-31T18:06:13.838Z,16.20
2017-08-31T18:08:41.244Z,16.10
2017-08-31T18:11:08.662Z,16.00
2017-08-31T18:13:36.074Z,15.90
2017-08-31T18:16:03.698Z,15.70
2017-08-31T18:18:31.116Z,15.70
2017-08-31T18:20:58.544Z,15.60
2017-08-31T18:23:25.960Z,15.50
2017-08-31T18:25:53.380Z,15.30
2017-08-31T18:28:20.795Z,15.30
2017-08-31T18:30:48.213Z,15.30
2017-08-31T18:33:15.634Z,15.20
2017-08-31T18:35:43.055Z,15.20
2017-08-31T18:38:11.258Z,15.20
2017-08-31T18:40:38.679Z,15.10
2017-08-31T18:43:06.090Z,15.10
2017-08-31T18:45:33.520Z,14.90
2017-08-31T18:48:00.936Z,14.80
2017-08-31T18:50:28.366Z,14.70
2017-08-31T18:52:55.776Z,14.60
2017-08-31T18:55:23.203Z,14.40
2017-08-31T18:57:50.612Z,14.30
2017-08-31T19:00:18.786Z,14.30
2017-08-31T19:02:46.203Z,14.30
2017-08-31T19:05:13.613Z,14.30
2017-08-31T19:07:41.037Z,14.30
2017-08-31T19:10:08.451Z,14.30
2017-08-31T19:12:35.875Z,14.30
2017-08-31T19:15:04.291Z,14.30
2017-08-31T19:17:31.695Z,14.20
2017-08-31T19:19:59.105Z,14.10
2017-08-31T19:22:26.537Z,14.00
2017-08-31T19:24:53.963Z,13.80
2017-08-31T19:27:27.766Z,13.80
2017-08-31T19:29:55.190Z,13.70
2017-08-31T19:32:22.595Z,13.60
2017-08-31T19:34:50.072Z,13.50
2017-08-31T19:37:23.843Z,13.50
2017-08-31T19:39:51.258Z,13.30
2017-08-31T19:42:18.674Z,13.30
2017-08-31T19:44:46.081Z,13.40
2017-08-31T19:47:13.499Z,13.50
2017-08-31T19:49:40.916Z,13.70
2017-08-31T19:52:08.342Z,13.70
2017-08-31T19:54:35.749Z,13.80
2017-08-31T19:57:03.191Z,13.70
2017-08-31T19:59:30.598Z,13.70
2017-08-31T20:01:58.013Z,13.60
2017-08-31T20:04:25.462Z,13.60
2017-08-31T20:06:52.881Z,13.60
2017-08-31T20:09:20.298Z,13.50
2017-08-31T20:11:48.700Z,13.50
2017-08-31T20:14:16.106Z,13.50
2017-08-31T20:16:43.523Z,13.50
2017-08-31T20:19:11.697Z,13.40
2017-08-31T20:21:39.105Z,13.40
2017-08-31T20:24:06.534Z,13.40
2017-08-31T20:26:33.950Z,13.40
2017-08-31T20:29:01.368Z,13.30
2017-08-31T20:31:28.778Z,13.30
2017-08-31T20:33:56.953Z,13.20
2017-08-31T20:36:24.374Z,13.20
2017-08-31T20:38:51.781Z,13.20
2017-08-31T20:41:19.192Z,13.20
2017-08-31T20:43:47.550Z,13.30
2017-08-31T20:46:18.808Z,13.40
2017-08-31T20:48:46.291Z,13.40
2017-08-31T20:51:13.698Z,13.40
2017-08-31T20:53:41.124Z,13.40
2017-08-31T20:56:08.771Z,13.40
2017-08-31T20:58:36.176Z,13.40
2017-08-31T21:01:03.589Z,13.40
2017-08-31T21:03:31.006Z,13.40
2017-08-31T21:05:58.414Z,13.30
2017-08-31T21:08:25.830Z,13.30
2017-08-31T21:10:53.248Z,13.20
2017-08-31T21:13:20.663Z,13.10
2017-08-31T21:15:48.072Z,13.00
2017-08-31T21:18:15.486Z,13.00
2017-08-31T21:20:42.885Z,13.00
2017-08-31T21:23:10.307Z,13.10
2017-08-31T21:25:37.714Z,13.20
2017-08-31T21:28:05.136Z,13.30
2017-08-31T21:30:32.550Z,13.30
2017-08-31T21:32:59.975Z,13.30
2017-08-31T21:35:27.431Z,13.30
2017-08-31T21:37:55.582Z,13.30
2017-08-31T21:40:22.993Z,13.20
2017-08-31T21:42:50.398Z,13.20
2017-08-31T21:45:17.822Z,13.20
2017-08-31T21:47:46.365Z,13.10
2017-08-31T21:50:13.779Z,13.10
2017-08-31T21:52:41.602Z,13.10
2017-08-31T21:55:09.028Z,13.10
2017-08-31T21:57:36.443Z,13.20
2017-08-31T22:00:03.862Z,13.20
2017-08-31T22:02:31.270Z,13.20
2017-08-31T22:04:58.686Z,13.20
2017-08-31T22:07:26.111Z,13.20
2017-08-31T22:09:53.533Z,13.10
2017-08-31T22:12:20.953Z,13.00
2017-08-31T22:14:48.996Z,13.00
2017-08-31T22:17:16.448Z,12.90
2017-08-31T22:19:43.866Z,12.90
2017-08-31T22:22:11.289Z,12.70
2017-08-31T22:24:38.706Z,12.70
2017-08-31T22:27:06.137Z,12.70
2017-08-31T22:29:33.542Z,12.70
2017-08-31T22:32:00.959Z,12.70
2017-08-31T22:34:28.391Z,12.80
2017-08-31T22:36:55.799Z,12.80
2017-08-31T22:39:23.218Z,12.60
2017-08-31T22:41:50.636Z,12.50
2017-08-31T22:44:18.057Z,12.40
2017-08-31T22:46:55.071Z,12.40
2017-08-31T22:49:22.486Z,12.40
2017-08-31T22:51:50.614Z,12.30
2017-08-31T22:54:20.949Z,12.10
2017-08-31T22:56:52.430Z,12.10
2017-08-31T22:59:19.853Z,12.10
2017-08-31T23:01:47.270Z,12.10
2017-08-31T23:04:14.707Z,12.20
2017-08-31T23:06:42.134Z,12.20
2017-08-31T23:09:10.336Z,12.10
2017-08-31T23:11:38.476Z,12.00
2017-08-31T23:14:05.900Z,12.00
2017-08-31T23:16:33.317Z,12.00
2017-08-31T23:19:00.743Z,12.20
2017-08-31T23:21:28.158Z,12.30
2017-08-31T23:23:55.588Z,12.30
2017-08-31T23:26:23.006Z,12.40
2017-08-31T23:28:51.177Z,12.30
2017-08-31T23:31:18.613Z,12.30
2017-08-31T23:33:46.026Z,12.30
2017-08-31T23:36:13.467Z,12.20
2017-08-31T23:38:40.874Z,12.20
2017-08-31T23:41:08.579Z,12.20
2017-08-31T23:43:35.969Z,12.20
2017-08-31T23:46:03.401Z,12.00
2017-08-31T23:48:30.817Z,11.90
2017-08-31T23:50:58.233Z,11.80
2017-08-31T23:53:25.655Z,11.70
2017-08-31T23:55:53.071Z,11.60
2017-08-31T23:58:20.488Z,11.60
